Terminal Aerodrome Forecast
Issued by NWS

Home | Current Version | Previous Version | Text Only | Print | Product List | Glossary On
Versions: 1 2 3 4 5 6 7 8 9 10 11 12 13 14 15 16
973
FTUS45 KREV 221746
TAFMMH
TAF
KMMH 221746Z 2218/2318 VRB05KT 1/2SM SN OVC005 WS020/22025KT
     FM222100 22022G35KT 3SM -SN SCT005 OVC015
     FM230300 16007KT 1/4SM +SN OVC005=

USA.gov is the U.S. government's official web portal to all federal, state and local government web resources and services.